Terminal Aerodrome Forecast
Issued by NWS

Home | Current Version | Previous Version | Text Only | Print | Product List | Glossary On
Versions: 1 2 3 4 5 6 7 8 9 10 11 12 13 14 15 16 17 18 19 20 21
000
FTUS43 KDMX 150005 AAA
TAFFOD
TAF AMD
KFOD 150005Z 1500/1524 31003KT P6SM -SHSN BKN028 OVC080
     FM150300 31004KT P6SM -SHSN BKN024
     FM150500 32005KT P6SM BKN045
     FM151100 26005KT P6SM BKN060
     FM151600 25009KT P6SM BKN035=

USA.gov is the U.S. government's official web portal to all federal, state and local government web resources and services.